createdAt,value
2017-07-19T12:48:31.531Z,27.10
2017-07-19T12:50:59.835Z,26.30
2017-07-19T12:53:27.380Z,26.30
2017-07-19T12:55:55.067Z,26.00
2017-07-19T12:58:22.578Z,25.90
2017-07-19T13:00:50.126Z,25.80
2017-07-19T13:03:17.657Z,25.80
2017-07-19T13:05:45.178Z,25.80
2017-07-19T13:08:12.738Z,25.80
2017-07-19T13:10:40.288Z,25.80
2017-07-19T13:13:08.551Z,25.90
2017-07-19T13:15:36.272Z,25.90
2017-07-19T13:18:03.810Z,25.90
2017-07-19T13:20:31.337Z,25.90
2017-07-19T13:22:58.878Z,25.90
2017-07-19T13:25:26.388Z,25.90
2017-07-19T13:27:53.986Z,25.90
2017-07-19T13:30:21.517Z,25.90
2017-07-19T13:32:49.026Z,25.90
2017-07-19T13:35:16.645Z,25.90
2017-07-19T13:37:44.166Z,25.90
2017-07-19T13:40:12.447Z,26.40
2017-07-19T13:42:40.715Z,26.60
2017-07-19T13:45:09.007Z,26.70
2017-07-19T13:47:36.706Z,26.60
2017-07-19T13:50:04.202Z,26.70
2017-07-19T13:52:31.751Z,26.80
2017-07-19T13:54:59.598Z,26.80
2017-07-19T13:57:27.098Z,26.80
2017-07-19T13:59:55.435Z,26.90
2017-07-19T14:02:22.953Z,26.90
2017-07-19T14:04:50.478Z,26.90
2017-07-19T14:07:18.030Z,26.90
2017-07-19T14:09:45.563Z,26.90
2017-07-19T14:12:13.157Z,27.00
2017-07-19T14:14:40.931Z,27.00
2017-07-19T14:17:08.449Z,27.00
2017-07-19T14:19:35.985Z,27.10
2017-07-19T14:22:03.598Z,27.10
2017-07-19T14:24:31.111Z,27.10
2017-07-19T14:26:58.619Z,27.10
2017-07-19T14:29:26.231Z,27.20
2017-07-19T14:31:53.775Z,27.20
2017-07-19T14:34:22.074Z,27.20
2017-07-19T14:36:49.589Z,27.20
2017-07-19T14:39:17.306Z,27.30
2017-07-19T14:41:44.837Z,27.30
2017-07-19T14:44:13.114Z,27.30
2017-07-19T14:46:41.390Z,27.30
2017-07-19T14:49:09.669Z,27.30
2017-07-19T14:51:37.978Z,27.30
2017-07-19T14:54:05.490Z,27.30
2017-07-19T14:56:33.798Z,27.40
2017-07-19T14:59:01.336Z,27.30
2017-07-19T15:01:29.609Z,27.40
2017-07-19T15:03:57.877Z,27.40
2017-07-19T15:06:26.203Z,27.40
2017-07-19T15:08:53.728Z,27.40
2017-07-19T15:11:22.013Z,27.20
2017-07-19T15:13:50.273Z,27.00
2017-07-19T15:16:18.612Z,26.90
2017-07-19T15:18:46.153Z,26.90
2017-07-19T15:21:14.000Z,26.90
2017-07-19T15:23:42.302Z,26.80
2017-07-19T15:26:09.862Z,26.70
2017-07-19T15:28:37.375Z,26.80
2017-07-19T15:31:05.701Z,26.70
2017-07-19T15:33:33.231Z,26.70
2017-07-19T15:36:00.770Z,26.70
2017-07-19T15:38:28.333Z,26.60
2017-07-19T15:40:55.849Z,26.60
2017-07-19T15:43:23.386Z,26.60
2017-07-19T15:45:51.156Z,26.60
2017-07-19T15:48:18.685Z,26.60
2017-07-19T15:50:47.119Z,26.60
2017-07-19T15:53:14.613Z,26.50
2017-07-19T15:55:43.028Z,26.50
2017-07-19T15:58:10.674Z,26.50
2017-07-19T16:00:38.978Z,26.50
2017-07-19T16:03:06.489Z,26.50
2017-07-19T16:05:34.802Z,26.50
2017-07-19T16:08:02.316Z,26.40
2017-07-19T16:10:29.922Z,26.50
2017-07-19T16:12:57.454Z,26.50
2017-07-19T16:15:25.765Z,26.40
2017-07-19T16:17:53.298Z,26.40
2017-07-19T16:20:21.548Z,26.40
2017-07-19T16:22:49.098Z,26.40
2017-07-19T16:25:16.599Z,26.40
2017-07-19T16:27:44.948Z,26.30
2017-07-19T16:30:12.462Z,26.40
2017-07-19T16:32:39.959Z,26.30
2017-07-19T16:35:07.476Z,26.30
2017-07-19T16:37:35.006Z,26.30
2017-07-19T16:40:03.328Z,26.30
2017-07-19T16:42:30.866Z,26.30
2017-07-19T16:44:59.219Z,26.30
2017-07-19T16:47:26.701Z,26.30
2017-07-19T16:49:54.233Z,26.30
2017-07-19T16:52:21.787Z,26.30
2017-07-19T16:54:49.301Z,26.30
2017-07-19T16:57:16.819Z,26.30
2017-07-19T16:59:44.354Z,26.30
2017-07-19T17:02:12.068Z,26.30
2017-07-19T17:04:39.628Z,26.30
2017-07-19T17:07:07.141Z,26.20
2017-07-19T17:09:34.626Z,26.30
2017-07-19T17:12:02.953Z,26.20
2017-07-19T17:14:30.568Z,26.20
2017-07-19T17:16:58.891Z,26.20
2017-07-19T17:19:26.404Z,26.20
2017-07-19T17:21:53.928Z,26.20
2017-07-19T17:24:21.463Z,26.20
2017-07-19T17:26:48.978Z,26.10
2017-07-19T17:29:17.277Z,26.10
2017-07-19T17:31:44.823Z,26.10
2017-07-19T17:34:12.393Z,26.10
2017-07-19T17:36:40.694Z,26.10
2017-07-19T17:39:08.201Z,26.10
2017-07-19T17:41:36.472Z,26.10
2017-07-19T17:44:04.029Z,26.10
2017-07-19T17:46:31.598Z,26.10
2017-07-19T17:48:59.155Z,26.10
2017-07-19T17:51:27.158Z,26.10
2017-07-19T17:53:55.460Z,26.00
2017-07-19T17:56:22.984Z,26.10
2017-07-19T17:58:51.267Z,26.00
2017-07-19T18:01:19.580Z,26.10
2017-07-19T18:03:47.089Z,26.00
2017-07-19T18:06:15.582Z,26.00
2017-07-19T18:08:43.845Z,26.00
2017-07-19T18:11:11.386Z,26.00
2017-07-19T18:13:38.912Z,26.00
2017-07-19T18:16:06.448Z,26.00
2017-07-19T18:18:34.799Z,26.00
2017-07-19T18:21:02.752Z,26.00
2017-07-19T18:23:30.291Z,26.00
2017-07-19T18:25:57.852Z,26.00
2017-07-19T18:28:25.356Z,26.00
2017-07-19T18:30:53.881Z,26.00
2017-07-19T18:33:21.430Z,25.90
2017-07-19T18:35:48.984Z,26.00
2017-07-19T18:38:17.480Z,25.90
2017-07-19T18:40:45.041Z,25.90
2017-07-19T18:43:12.605Z,25.90
2017-07-19T18:45:40.200Z,25.90
2017-07-19T18:48:07.803Z,25.90
2017-07-19T18:50:35.512Z,25.90
2017-07-19T18:53:03.107Z,25.90
2017-07-19T18:55:31.399Z,25.90
2017-07-19T18:57:59.780Z,25.90
2017-07-19T19:00:28.088Z,25.90
2017-07-19T19:02:55.684Z,25.90
2017-07-19T19:05:23.218Z,25.90
2017-07-19T19:07:50.800Z,25.90
2017-07-19T19:10:18.378Z,25.90
2017-07-19T19:12:45.954Z,25.90
2017-07-19T19:15:14.335Z,25.90
2017-07-19T19:17:41.901Z,25.80
2017-07-19T19:20:10.213Z,25.80
2017-07-19T19:22:37.745Z,25.80
2017-07-19T19:25:05.236Z,25.80
2017-07-19T19:27:32.764Z,25.80
2017-07-19T19:30:01.136Z,25.80
2017-07-19T19:32:29.476Z,25.90
2017-07-19T19:34:56.988Z,25.80
2017-07-19T19:37:24.670Z,25.80
2017-07-19T19:39:52.177Z,25.80
2017-07-19T19:42:20.669Z,25.80
2017-07-19T19:44:48.188Z,25.80
2017-07-19T19:47:15.727Z,25.80
2017-07-19T19:49:43.289Z,25.90
2017-07-19T19:52:10.800Z,25.80
2017-07-19T19:54:39.110Z,25.80
2017-07-19T19:57:06.676Z,25.80
2017-07-19T19:59:34.206Z,25.80
2017-07-19T20:02:02.548Z,25.80
2017-07-19T20:04:30.116Z,25.80
2017-07-19T20:06:57.654Z,25.80
2017-07-19T20:09:25.392Z,25.80
2017-07-19T20:11:52.922Z,25.80
2017-07-19T20:14:20.419Z,25.80
2017-07-19T20:16:47.970Z,25.80
2017-07-19T20:19:15.516Z,25.80
2017-07-19T20:21:43.874Z,25.80
2017-07-19T20:24:11.457Z,25.80
2017-07-19T20:26:39.713Z,25.80
2017-07-19T20:29:07.303Z,25.80
2017-07-19T20:31:35.644Z,25.80
2017-07-19T20:34:03.180Z,25.80
2017-07-19T20:36:30.710Z,25.80
2017-07-19T20:38:58.217Z,25.80
2017-07-19T20:41:25.875Z,25.90
2017-07-19T20:43:53.406Z,25.90
2017-07-19T20:46:20.913Z,25.90
2017-07-19T20:48:48.504Z,25.90
2017-07-19T20:51:16.157Z,25.90
2017-07-19T20:53:44.434Z,25.90
2017-07-19T20:56:12.743Z,25.90
2017-07-19T20:58:40.258Z,25.90
2017-07-19T21:01:07.792Z,25.90
2017-07-19T21:03:35.307Z,25.90
2017-07-19T21:06:02.842Z,25.90
2017-07-19T21:08:31.355Z,25.90
2017-07-19T21:10:58.845Z,25.90
2017-07-19T21:13:26.672Z,25.90
2017-07-19T21:15:54.321Z,25.90
2017-07-19T21:18:22.619Z,25.90
2017-07-19T21:20:50.212Z,25.90
2017-07-19T21:23:17.738Z,25.90
2017-07-19T21:25:45.252Z,25.90
2017-07-19T21:28:12.773Z,25.90
2017-07-19T21:30:40.289Z,25.90
2017-07-19T21:33:18.530Z,25.90
2017-07-19T21:35:46.066Z,25.90
2017-07-19T21:38:14.370Z,25.90
2017-07-19T21:40:41.845Z,25.90
2017-07-19T21:43:09.356Z,25.90
2017-07-19T21:45:37.850Z,25.90
2017-07-19T21:48:05.367Z,25.90
2017-07-19T21:50:32.827Z,25.90
2017-07-19T21:53:00.403Z,25.90
2017-07-19T21:55:27.914Z,25.90
2017-07-19T21:57:55.425Z,25.90
2017-07-19T22:00:22.995Z,25.90
2017-07-19T22:02:51.232Z,25.90
2017-07-19T22:05:18.795Z,25.90
2017-07-19T22:07:46.329Z,25.90
2017-07-19T22:10:13.860Z,25.90
2017-07-19T22:12:42.195Z,25.90
2017-07-19T22:15:09.734Z,25.90
2017-07-19T22:17:37.264Z,25.90
2017-07-19T22:20:04.791Z,25.90
2017-07-19T22:22:32.455Z,25.90
2017-07-19T22:24:59.949Z,25.90
2017-07-19T22:27:27.474Z,25.90
2017-07-19T22:29:55.022Z,25.90
2017-07-19T22:32:22.537Z,25.90
2017-07-19T22:34:50.068Z,25.90
2017-07-19T22:37:18.375Z,25.90
2017-07-19T22:39:45.871Z,25.90
2017-07-19T22:42:13.440Z,25.90
2017-07-19T22:44:40.949Z,25.90
2017-07-19T22:47:08.473Z,25.90
2017-07-19T22:49:36.013Z,25.90
2017-07-19T22:52:03.542Z,25.90
2017-07-19T22:54:31.060Z,25.90
2017-07-19T22:56:58.610Z,25.90
2017-07-19T22:59:26.098Z,25.90
2017-07-19T23:01:53.865Z,25.90
2017-07-19T23:04:21.390Z,25.90
2017-07-19T23:06:48.952Z,25.90
2017-07-19T23:09:16.457Z,25.90
2017-07-19T23:11:43.970Z,25.90
2017-07-19T23:14:11.692Z,25.90
2017-07-19T23:16:39.235Z,25.90
2017-07-19T23:19:06.744Z,25.90
2017-07-19T23:21:34.285Z,25.90
2017-07-19T23:24:01.801Z,25.90
2017-07-19T23:26:29.318Z,25.90
2017-07-19T23:28:56.813Z,25.90
2017-07-19T23:31:25.110Z,25.90
2017-07-19T23:33:52.658Z,25.90
2017-07-19T23:36:20.940Z,25.90
2017-07-19T23:38:48.458Z,25.90
2017-07-19T23:41:16.133Z,25.90
2017-07-19T23:43:43.655Z,25.90
2017-07-19T23:46:11.165Z,25.90
2017-07-19T23:48:39.434Z,25.90
2017-07-19T23:51:07.732Z,25.90
2017-07-19T23:53:35.221Z,25.90
2017-07-19T23:56:02.743Z,25.90
2017-07-19T23:58:31.021Z,25.90
